Time;durP1;ratioP1;P1;durP2;ratioP2;P2;SDS_P1;SDS_P2;PMS_P1;PMS_P2;Temp;Humidity;BMP_temperature;BMP_pressure;BME280_temperature;BME280_humidity;BME280_pressure;Samples;Min_cycle;Max_cycle;Signal;HPM_P1;HPM_P2
2024/04/06 00:01:18;;;;;;;1.48;1.38;;;16.40;65.40;;;;;;5032928;28;20314;-64
2024/04/06 00:03:44;;;;;;;1.33;1.30;;;16.50;65.50;;;;;;5033311;28;20599;-65
2024/04/06 00:06:09;;;;;;;1.15;1.00;;;16.40;65.50;;;;;;5032334;28;20179;-65
2024/04/06 00:08:35;;;;;;;1.50;1.40;;;16.40;65.50;;;;;;5033335;28;20234;-66
2024/04/06 00:11:00;;;;;;;1.25;1.15;;;16.40;65.50;;;;;;5033124;28;20168;-64
2024/04/06 00:13:26;;;;;;;1.30;1.20;;;16.40;65.50;;;;;;5032178;28;20525;-65
2024/04/06 00:15:51;;;;;;;1.45;1.35;;;16.40;65.50;;;;;;5033133;28;20653;-64
2024/04/06 00:18:17;;;;;;;1.50;1.40;;;16.40;65.50;;;;;;5033048;28;20176;-65
2024/04/06 00:20:42;;;;;;;1.63;1.40;;;16.40;65.50;;;;;;5032333;28;20632;-65
2024/04/06 00:23:08;;;;;;;1.40;1.25;;;16.40;65.50;;;;;;5032626;28;20705;-65
2024/04/06 00:25:33;;;;;;;1.45;1.35;;;16.40;65.40;;;;;;5032993;28;20191;-65
2024/04/06 00:27:59;;;;;;;2.10;0.90;;;16.40;65.50;;;;;;5031533;28;20182;-65
2024/04/06 00:30:24;;;;;;;1.65;1.20;;;16.40;65.50;;;;;;5032758;28;20172;-65
2024/04/06 00:32:50;;;;;;;1.50;1.35;;;16.40;65.50;;;;;;5032822;28;20172;-65
2024/04/06 00:35:16;;;;;;;1.45;1.20;;;16.40;65.50;;;;;;5031897;28;20179;-64
2024/04/06 00:37:42;;;;;;;1.27;1.17;;;16.40;65.50;;;;;;5032734;28;20591;-65
2024/04/06 00:40:08;;;;;;;1.50;1.40;;;16.40;65.50;;;;;;5032484;28;20230;-64
2024/04/06 00:42:34;;;;;;;1.38;1.27;;;16.40;65.50;;;;;;5031703;28;20242;-66
2024/04/06 00:44:59;;;;;;;1.15;1.13;;;16.40;65.50;;;;;;5032745;28;20171;-65
2024/04/06 00:47:25;;;;;;;1.85;1.40;;;16.40;65.60;;;;;;5032355;28;20661;-65
2024/04/06 00:49:51;;;;;;;1.20;1.10;;;16.40;65.50;;;;;;5031934;28;20211;-65
2024/04/06 00:52:16;;;;;;;1.48;1.38;;;16.40;65.60;;;;;;5032177;28;20206;-65
2024/04/06 00:54:42;;;;;;;1.40;1.30;;;16.40;65.50;;;;;;5032053;28;20180;-66
2024/04/06 00:57:07;;;;;;;1.42;1.23;;;16.40;65.50;;;;;;5031928;28;20180;-64
2024/04/06 00:59:36;;;;;;;1.60;1.05;;;16.40;65.60;;;;;;5032416;28;20183;-66
2024/04/06 01:02:02;;;;;;;1.17;1.15;;;16.40;65.60;;;;;;5031574;28;20211;-64
2024/04/06 01:04:28;;;;;;;2.00;1.52;;;16.40;65.50;;;;;;5032068;28;20176;-65
2024/04/06 01:06:54;;;;;;;1.10;1.00;;;16.40;65.60;;;;;;5032001;28;20187;-65
2024/04/06 01:09:20;;;;;;;1.50;1.40;;;16.40;65.60;;;;;;5029924;28;20211;-65
2024/04/06 01:11:45;;;;;;;1.45;1.25;;;16.40;65.60;;;;;;5032017;28;20176;-65
2024/04/06 01:14:11;;;;;;;1.63;1.27;;;16.40;65.60;;;;;;5031542;28;20179;-64
2024/04/06 01:16:37;;;;;;;1.23;1.23;;;16.40;65.60;;;;;;5031545;28;20218;-65
2024/04/06 01:19:02;;;;;;;1.50;1.40;;;16.40;65.60;;;;;;5031791;28;20648;-65
2024/04/06 01:21:28;;;;;;;1.33;1.17;;;16.40;65.60;;;;;;5031754;28;20218;-65
2024/04/06 01:23:54;;;;;;;1.80;1.05;;;16.40;66.40;;;;;;5031306;28;20275;-67
2024/04/06 01:26:22;;;;;;;1.40;1.30;;;16.40;65.60;;;;;;5031581;28;20229;-65
2024/04/06 01:28:48;;;;;;;1.30;1.20;;;16.40;65.60;;;;;;5032178;28;20175;-65
2024/04/06 01:31:13;;;;;;;2.05;1.58;;;16.40;65.60;;;;;;5030972;28;20190;-65
2024/04/06 01:33:39;;;;;;;1.90;1.40;;;16.40;65.60;;;;;;5031812;28;20217;-65
2024/04/06 01:36:05;;;;;;;1.00;1.00;;;16.30;65.60;;;;;;5031800;28;20175;-64
2024/04/06 01:38:31;;;;;;;1.50;1.40;;;16.40;65.60;;;;;;5030623;28;20188;-65
2024/04/06 01:40:56;;;;;;;1.88;1.45;;;16.40;65.60;;;;;;5030821;28;20188;-64
2024/04/06 01:43:22;;;;;;;1.48;1.38;;;16.30;65.60;;;;;;5031682;28;20179;-65
2024/04/06 01:45:47;;;;;;;1.23;1.13;;;16.40;65.60;;;;;;5031228;28;20214;-65
2024/04/06 01:48:13;;;;;;;1.80;1.20;;;16.30;65.60;;;;;;5031475;28;20180;-65
2024/04/06 01:50:39;;;;;;;1.30;1.20;;;16.40;65.60;;;;;;5031854;28;20573;-66
2024/04/06 01:53:05;;;;;;;1.15;1.00;;;16.30;65.60;;;;;;5030962;28;20549;-65
2024/04/06 01:55:30;;;;;;;1.45;1.10;;;16.30;65.60;;;;;;5031219;28;20176;-65
2024/04/06 01:57:56;;;;;;;1.25;1.15;;;16.30;65.60;;;;;;5031346;28;20176;-65
2024/04/06 02:00:22;;;;;;;1.17;1.08;;;16.30;66.50;;;;;;5030809;28;20259;-64
2024/04/06 02:02:47;;;;;;;1.63;1.52;;;16.40;65.70;;;;;;5031689;28;20611;-65
2024/04/06 02:05:13;;;;;;;1.10;1.00;;;16.30;65.60;;;;;;5030486;28;20172;-65
2024/04/06 02:07:38;;;;;;;1.27;1.17;;;16.30;65.60;;;;;;5031640;28;20527;-66
2024/04/06 02:10:04;;;;;;;1.85;1.40;;;16.30;65.80;;;;;;5031361;28;20227;-65
2024/04/06 02:12:29;;;;;;;1.25;1.20;;;16.30;65.60;;;;;;5030771;28;20191;-65
2024/04/06 02:14:55;;;;;;;1.33;1.23;;;16.30;65.60;;;;;;5031514;28;20667;-64
2024/04/06 02:17:20;;;;;;;1.25;1.25;;;16.30;65.60;;;;;;5031277;28;20180;-65
2024/04/06 02:19:46;;;;;;;1.23;1.13;;;16.30;65.70;;;;;;5030899;28;20180;-65
2024/04/06 02:22:12;;;;;;;0.88;0.88;;;16.30;65.70;;;;;;5031041;28;20620;-65
2024/04/06 02:24:37;;;;;;;0.90;0.90;;;16.30;65.70;;;;;;5031397;28;20178;-66
2024/04/06 02:27:03;;;;;;;1.10;1.00;;;16.30;65.60;;;;;;5030913;28;20267;-64
2024/04/06 02:29:30;;;;;;;1.10;1.00;;;16.30;65.60;;;;;;5031205;28;20198;-65
2024/04/06 02:31:57;;;;;;;1.00;1.00;;;16.30;65.70;;;;;;5031432;28;20176;-65
2024/04/06 02:34:22;;;;;;;1.40;1.30;;;16.30;65.70;;;;;;5030445;28;20191;-65
2024/04/06 02:36:48;;;;;;;1.30;1.20;;;16.30;65.60;;;;;;5031474;28;20172;-65
2024/04/06 02:39:17;;;;;;;1.00;1.00;;;16.30;65.70;;;;;;5030997;28;20176;-65
2024/04/06 02:41:43;;;;;;;1.45;1.30;;;16.30;65.60;;;;;;5030432;28;20266;-65
2024/04/06 02:44:08;;;;;;;1.10;1.00;;;16.30;65.70;;;;;;5030892;28;20598;-65
2024/04/06 02:46:34;;;;;;;1.08;1.00;;;16.30;65.60;;;;;;5031152;28;20642;-65
2024/04/06 02:48:59;;;;;;;1.40;1.30;;;16.30;65.70;;;;;;5030357;28;20279;-66
2024/04/06 02:51:26;;;;;;;1.08;1.00;;;16.30;65.70;;;;;;5032609;28;20266;-67
2024/04/06 02:53:51;;;;;;;1.10;0.95;;;16.30;65.70;;;;;;5034586;28;20190;-65
2024/04/06 02:56:17;;;;;;;1.20;1.10;;;16.30;65.70;;;;;;5033406;28;20271;-65
2024/04/06 02:58:42;;;;;;;1.40;1.15;;;16.30;65.70;;;;;;5034552;28;20234;-65
2024/04/06 03:01:08;;;;;;;1.23;1.13;;;16.30;65.70;;;;;;5034287;28;20172;-65
2024/04/06 03:03:34;;;;;;;1.10;1.00;;;16.30;65.70;;;;;;5033897;28;20647;-65
2024/04/06 03:06:00;;;;;;;1.02;0.98;;;16.30;65.70;;;;;;5034447;28;20168;-65
2024/04/06 03:08:25;;;;;;;1.30;1.20;;;16.30;65.70;;;;;;5033406;28;20229;-65
2024/04/06 03:10:51;;;;;;;1.23;1.13;;;16.30;65.70;;;;;;5034225;28;20530;-65
2024/04/06 03:13:17;;;;;;;1.42;1.10;;;16.30;65.70;;;;;;5034056;28;20172;-65
2024/04/06 03:15:42;;;;;;;0.80;0.80;;;16.30;65.70;;;;;;5033448;28;20186;-64
2024/04/06 03:18:08;;;;;;;1.17;1.08;;;16.30;65.70;;;;;;5034019;28;20203;-64
2024/04/06 03:20:33;;;;;;;0.93;0.93;;;16.30;65.70;;;;;;5034178;28;20176;-65
2024/04/06 03:23:03;;;;;;;0.73;0.73;;;16.30;65.70;;;;;;5033236;28;20204;-64
2024/04/06 03:25:29;;;;;;;1.20;1.10;;;16.30;65.70;;;;;;5034027;28;20290;-65
2024/04/06 03:27:54;;;;;;;1.27;1.17;;;16.30;65.70;;;;;;5034111;28;20258;-65
2024/04/06 03:30:20;;;;;;;1.10;1.00;;;16.30;65.70;;;;;;5033195;28;20211;-65
2024/04/06 03:32:45;;;;;;;1.20;1.10;;;16.30;65.70;;;;;;5033954;28;20179;-65
2024/04/06 03:35:11;;;;;;;1.00;1.00;;;16.30;65.70;;;;;;5033575;28;20180;-64
2024/04/06 03:37:36;;;;;;;0.98;0.93;;;16.30;65.70;;;;;;5033321;28;20176;-65
2024/04/06 03:40:05;;;;;;;1.20;1.10;;;16.30;65.70;;;;;;5034166;28;20578;-65
2024/04/06 03:42:31;;;;;;;1.20;1.15;;;16.30;65.70;;;;;;5033372;28;20239;-65
2024/04/06 03:44:56;;;;;;;1.25;1.00;;;16.30;65.80;;;;;;5033210;28;20222;-64
2024/04/06 03:47:22;;;;;;;1.40;1.30;;;16.20;65.70;;;;;;5033596;28;20673;-64
2024/04/06 03:49:48;;;;;;;1.17;1.08;;;16.20;65.70;;;;;;5033832;28;20228;-65
2024/04/06 03:52:14;;;;;;;1.20;1.10;;;16.20;65.80;;;;;;5032524;28;20259;-65
2024/04/06 03:54:39;;;;;;;1.30;1.20;;;16.20;65.80;;;;;;5033764;28;20171;-66
2024/04/06 03:57:05;;;;;;;1.40;1.00;;;16.30;65.70;;;;;;5033563;28;20179;-65
2024/04/06 03:59:31;;;;;;;1.30;1.20;;;16.20;65.70;;;;;;5032618;28;20304;-65
2024/04/06 04:01:57;;;;;;;1.17;1.00;;;16.20;65.70;;;;;;5032818;28;20233;-65
2024/04/06 04:04:22;;;;;;;1.08;1.05;;;16.20;65.70;;;;;;5032850;28;20168;-65
2024/04/06 04:06:48;;;;;;;1.20;1.10;;;16.20;65.70;;;;;;5032549;28;20259;-64
2024/04/06 04:09:16;;;;;;;1.10;1.00;;;16.20;65.70;;;;;;5033120;28;20181;-65
2024/04/06 04:11:42;;;;;;;1.15;1.05;;;16.20;65.70;;;;;;5032763;28;20180;-65
2024/04/06 04:14:07;;;;;;;1.20;1.10;;;16.20;65.70;;;;;;5032957;28;20184;-65
2024/04/06 04:16:33;;;;;;;1.00;1.00;;;16.20;65.70;;;;;;5033091;28;20176;-65
2024/04/06 04:18:58;;;;;;;1.20;1.10;;;16.20;65.70;;;;;;5031165;28;20241;-65
2024/04/06 04:21:24;;;;;;;1.10;1.00;;;16.20;65.70;;;;;;5032633;28;20974;-65
2024/04/06 04:23:51;;;;;;;0.93;0.93;;;16.20;65.70;;;;;;5033035;28;20191;-64
2024/04/06 04:26:16;;;;;;;1.08;1.00;;;16.20;65.70;;;;;;5032057;28;20251;-64
2024/04/06 04:28:42;;;;;;;0.85;0.85;;;16.20;65.70;;;;;;5033040;28;20339;-65
2024/04/06 04:31:15;;;;;;;1.05;1.00;;;16.20;65.80;;;;;;5032725;28;20179;-63
2024/04/06 04:33:41;;;;;;;0.75;0.75;;;16.20;65.70;;;;;;5032050;28;20183;-63
2024/04/06 04:36:07;;;;;;;0.90;0.90;;;16.20;65.70;;;;;;5032666;28;20187;-63
2024/04/06 04:38:33;;;;;;;1.00;1.00;;;16.20;65.70;;;;;;5032764;28;20172;-66
2024/04/06 04:40:58;;;;;;;1.00;1.00;;;16.20;65.70;;;;;;5031655;28;20706;-63
2024/04/06 04:43:24;;;;;;;0.90;0.90;;;16.20;65.80;;;;;;5032371;28;20220;-64
2024/04/06 04:45:50;;;;;;;0.93;0.93;;;16.20;65.70;;;;;;5032469;28;20172;-64
2024/04/06 04:48:15;;;;;;;1.40;1.30;;;16.20;65.70;;;;;;5031494;28;20180;-65
2024/04/06 04:50:41;;;;;;;0.82;0.80;;;16.20;65.70;;;;;;5032403;28;20309;-66
2024/04/06 04:53:06;;;;;;;1.23;1.13;;;16.20;65.80;;;;;;5032580;28;20176;-64
2024/04/06 04:55:32;;;;;;;1.17;1.08;;;16.20;65.80;;;;;;5031647;28;20180;-64
2024/04/06 04:57:58;;;;;;;1.30;1.20;;;16.20;65.70;;;;;;5032346;28;20528;-64
2024/04/06 05:00:24;;;;;;;1.30;1.20;;;16.20;65.80;;;;;;5032131;28;20642;-64
2024/04/06 05:02:50;;;;;;;1.20;1.08;;;16.20;65.80;;;;;;5031521;28;20595;-65
2024/04/06 05:05:15;;;;;;;0.88;0.85;;;16.20;65.70;;;;;;5031855;28;20179;-64
2024/04/06 05:07:41;;;;;;;1.48;1.17;;;16.20;65.80;;;;;;5032204;28;20207;-65
2024/04/06 05:10:09;;;;;;;1.73;0.93;;;16.10;65.70;;;;;;5031304;28;20209;-64
2024/04/06 05:12:35;;;;;;;0.90;0.90;;;16.10;65.80;;;;;;5032301;28;20188;-64
2024/04/06 05:15:01;;;;;;;0.90;0.90;;;16.10;65.80;;;;;;5031279;28;20583;-64
2024/04/06 05:17:26;;;;;;;1.20;1.10;;;16.10;65.70;;;;;;5031656;28;20172;-64
2024/04/06 05:19:52;;;;;;;0.80;0.80;;;16.20;65.70;;;;;;5031883;28;20530;-64
2024/04/06 05:22:17;;;;;;;1.30;0.90;;;16.10;65.70;;;;;;5030933;28;20728;-64
2024/04/06 05:24:43;;;;;;;1.92;1.20;;;16.10;65.70;;;;;;5032141;28;20167;-65
2024/04/06 05:27:09;;;;;;;1.20;1.10;;;16.20;65.70;;;;;;5031612;28;20176;-64
2024/04/06 05:29:35;;;;;;;1.20;1.10;;;16.20;65.70;;;;;;5031273;28;20544;-65
2024/04/06 05:32:00;;;;;;;1.42;1.23;;;16.10;66.40;;;;;;5031784;28;20295;-63
2024/04/06 05:34:26;;;;;;;1.77;1.10;;;16.20;65.70;;;;;;5031534;28;20180;-65
2024/04/06 05:36:53;;;;;;;1.20;1.10;;;16.10;65.70;;;;;;5031210;28;20180;-65
2024/04/06 05:39:18;;;;;;;1.92;1.20;;;16.20;65.60;;;;;;5031694;28;20180;-65
2024/04/06 05:41:44;;;;;;;1.02;1.02;;;16.20;65.60;;;;;;5031644;28;20655;-64
2024/04/06 05:44:09;;;;;;;1.52;1.10;;;16.20;65.70;;;;;;5030820;28;20262;-64
2024/04/06 05:46:35;;;;;;;1.17;1.10;;;16.20;65.60;;;;;;5031841;28;20266;-65
2024/04/06 05:49:02;;;;;;;1.17;0.90;;;16.20;65.60;;;;;;5031535;28;20237;-64
2024/04/06 05:51:28;;;;;;;1.05;1.00;;;16.20;65.70;;;;;;5031026;28;20190;-65
2024/04/06 05:53:54;;;;;;;0.90;0.90;;;16.20;65.60;;;;;;5031561;28;20546;-64
2024/04/06 05:56:19;;;;;;;1.05;0.98;;;16.20;65.80;;;;;;5031348;28;20175;-64
2024/04/06 05:58:45;;;;;;;0.90;0.90;;;16.30;65.90;;;;;;5030903;28;20182;-65
2024/04/06 06:01:11;;;;;;;1.08;0.98;;;16.30;65.90;;;;;;5031026;28;20179;-63
2024/04/06 06:03:36;;;;;;;0.82;0.82;;;16.40;65.90;;;;;;5031859;28;20190;-65
2024/04/06 06:06:03;;;;;;;0.90;0.90;;;16.40;65.80;;;;;;5031021;28;20178;-65
2024/04/06 06:08:28;;;;;;;0.90;0.90;;;16.50;65.70;;;;;;5031413;28;20207;-65
2024/04/06 06:10:54;;;;;;;0.80;0.80;;;16.60;65.60;;;;;;5031556;28;20168;-64
2024/04/06 06:13:19;;;;;;;1.77;0.95;;;16.80;65.50;;;;;;5030565;28;20726;-63
2024/04/06 06:15:45;;;;;;;1.10;1.00;;;16.90;65.20;;;;;;5031460;28;20569;-64
2024/04/06 06:18:11;;;;;;;0.50;0.50;;;17.00;65.00;;;;;;5031093;28;20179;-64
2024/04/06 06:20:38;;;;;;;0.73;0.73;;;17.10;64.80;;;;;;5030886;28;20168;-65
2024/04/06 06:23:04;;;;;;;0.60;0.60;;;17.20;64.50;;;;;;5031241;28;20272;-63
2024/04/06 06:25:30;;;;;;;0.80;0.80;;;17.30;64.40;;;;;;5030921;28;20184;-64
2024/04/06 06:27:55;;;;;;;1.08;0.90;;;17.30;64.10;;;;;;5035092;28;20180;-64
2024/04/06 06:30:21;;;;;;;1.17;0.68;;;17.40;64.00;;;;;;5034813;28;20313;-63
2024/04/06 06:32:46;;;;;;;0.60;0.60;;;17.40;63.80;;;;;;5034335;28;20262;-64
2024/04/06 06:35:12;;;;;;;0.90;0.80;;;17.50;63.80;;;;;;5034707;28;20847;-64
2024/04/06 06:37:37;;;;;;;0.57;0.57;;;17.50;63.80;;;;;;5034974;28;20180;-64
2024/04/06 06:40:03;;;;;;;0.90;0.90;;;17.50;63.80;;;;;;5034205;28;20184;-65
2024/04/06 06:42:29;;;;;;;0.73;0.73;;;17.50;63.60;;;;;;5034456;28;20271;-64
2024/04/06 06:44:55;;;;;;;0.70;0.70;;;17.50;63.70;;;;;;5034796;28;20257;-64
2024/04/06 06:47:24;;;;;;;1.00;0.80;;;17.60;63.60;;;;;;5033717;28;20211;-64
2024/04/06 06:49:52;;;;;;;0.80;0.80;;;17.60;63.50;;;;;;5035029;28;20199;-64
2024/04/06 06:52:18;;;;;;;0.73;0.63;;;17.70;63.30;;;;;;5034340;28;20629;-64
2024/04/06 06:54:43;;;;;;;0.65;0.65;;;17.80;63.00;;;;;;5034078;28;20226;-64
2024/04/06 06:57:09;;;;;;;0.93;0.93;;;17.70;62.90;;;;;;5034261;28;20242;-63
2024/04/06 06:59:35;;;;;;;0.70;0.70;;;17.70;63.00;;;;;;5034521;28;20184;-63
2024/04/06 07:02:01;;;;;;;0.80;0.80;;;17.70;63.20;;;;;;5034030;28;20687;-63
2024/04/06 07:04:26;;;;;;;0.82;0.82;;;17.50;63.20;;;;;;5034171;28;20264;-65
2024/04/06 07:06:52;;;;;;;0.70;0.70;;;17.60;63.40;;;;;;5034676;28;20306;-64
2024/04/06 07:09:17;;;;;;;0.80;0.77;;;17.50;63.60;;;;;;5033471;28;20211;-64
2024/04/06 07:11:43;;;;;;;1.10;0.50;;;17.40;63.70;;;;;;5034334;28;20176;-64
2024/04/06 07:14:11;;;;;;;0.60;0.60;;;17.50;63.70;;;;;;5033910;28;20201;-64
2024/04/06 07:16:37;;;;;;;0.60;0.60;;;17.40;63.70;;;;;;5033594;28;20175;-64
2024/04/06 07:19:03;;;;;;;0.70;0.70;;;17.40;63.90;;;;;;5034287;28;20238;-64
2024/04/06 07:21:29;;;;;;;0.60;0.60;;;17.40;63.90;;;;;;5033973;28;20180;-64
2024/04/06 07:23:54;;;;;;;0.60;0.60;;;17.40;64.00;;;;;;5033498;28;20366;-64
2024/04/06 07:26:20;;;;;;;0.70;0.70;;;17.40;64.10;;;;;;5033928;28;20168;-64
2024/04/06 07:28:45;;;;;;;0.80;0.60;;;17.30;64.10;;;;;;5033328;28;20225;-64
2024/04/06 07:31:11;;;;;;;0.90;0.90;;;17.30;64.10;;;;;;5033787;28;20168;-64
2024/04/06 07:33:37;;;;;;;0.73;0.73;;;17.40;64.20;;;;;;5034144;28;20168;-64
2024/04/06 07:36:03;;;;;;;0.80;0.80;;;17.40;64.20;;;;;;5033324;28;20180;-64
2024/04/06 07:38:29;;;;;;;0.73;0.70;;;17.40;64.30;;;;;;5032504;28;20180;-64
2024/04/06 07:41:01;;;;;;;0.60;0.60;;;17.40;64.20;;;;;;5033676;28;20553;-64
2024/04/06 07:43:27;;;;;;;0.88;0.88;;;17.30;64.20;;;;;;5032489;28;20216;-64
2024/04/06 07:45:53;;;;;;;0.63;0.63;;;17.40;64.40;;;;;;5033857;28;20226;-64
2024/04/06 07:48:18;;;;;;;0.63;0.63;;;17.40;64.40;;;;;;5033518;28;20183;-64
2024/04/06 07:50:44;;;;;;;0.60;0.60;;;17.40;64.50;;;;;;5033085;28;20258;-65
2024/04/06 07:53:10;;;;;;;0.85;0.85;;;17.30;64.40;;;;;;5033214;28;20279;-64
2024/04/06 07:55:36;;;;;;;0.70;0.70;;;17.40;64.50;;;;;;5033552;28;20176;-64
2024/04/06 07:58:01;;;;;;;0.90;0.75;;;17.40;64.50;;;;;;5032686;28;20172;-64
2024/04/06 08:00:27;;;;;;;0.70;0.70;;;17.40;64.50;;;;;;5033168;28;20188;-64
2024/04/06 08:02:52;;;;;;;0.80;0.80;;;17.40;64.50;;;;;;5033356;28;20219;-64
2024/04/06 08:05:18;;;;;;;0.77;0.77;;;17.40;64.50;;;;;;5032534;28;20172;-64
2024/04/06 08:07:43;;;;;;;2.45;0.80;;;17.40;64.50;;;;;;5033394;28;20172;-64
2024/04/06 08:10:16;;;;;;;0.90;0.80;;;17.40;64.50;;;;;;5032992;28;20174;-64
2024/04/06 08:12:42;;;;;;;0.80;0.75;;;17.40;64.40;;;;;;5032506;28;20233;-65
2024/04/06 08:15:09;;;;;;;0.95;0.70;;;17.50;64.50;;;;;;5032948;28;20175;-63
2024/04/06 08:17:48;;;;;;;0.73;0.73;;;17.50;64.50;;;;;;5031959;28;20378;-63
2024/04/06 08:20:14;;;;;;;0.70;0.70;;;17.50;64.50;;;;;;5032518;28;20171;-64
2024/04/06 08:22:40;;;;;;;0.73;0.52;;;17.50;64.40;;;;;;5032963;28;20216;-65
2024/04/06 08:25:05;;;;;;;0.77;0.77;;;17.50;64.40;;;;;;5032076;28;20175;-63
2024/04/06 08:27:33;;;;;;;0.73;0.73;;;17.50;64.40;;;;;;5032868;28;20183;-63
2024/04/06 08:29:59;;;;;;;1.00;0.70;;;17.50;64.40;;;;;;5032923;28;20582;-64
2024/04/06 08:32:24;;;;;;;0.70;0.70;;;17.60;64.50;;;;;;5031917;28;20499;-64
2024/04/06 08:34:54;;;;;;;0.90;0.90;;;17.50;64.40;;;;;;5032868;28;20652;-64
2024/04/06 08:37:19;;;;;;;0.80;0.80;;;17.60;64.50;;;;;;5032451;28;20242;-63
2024/04/06 08:39:45;;;;;;;0.77;0.77;;;17.60;64.50;;;;;;5032082;28;20599;-63
2024/04/06 08:42:12;;;;;;;0.82;0.70;;;17.60;64.50;;;;;;5032047;28;20771;-64
2024/04/06 08:44:42;;;;;;;0.82;0.70;;;17.60;64.40;;;;;;5031732;28;20186;-64
2024/04/06 08:47:10;;;;;;;0.63;0.63;;;17.60;64.50;;;;;;5031556;28;20701;-64
2024/04/06 08:49:36;;;;;;;0.93;0.70;;;17.70;64.50;;;;;;5030897;28;20639;-64
2024/04/06 08:52:02;;;;;;;0.90;0.90;;;17.70;64.50;;;;;;5031120;28;20198;-64
2024/04/06 08:54:28;;;;;;;0.70;0.70;;;17.70;64.50;;;;;;5031412;28;20176;-64
2024/04/06 08:56:53;;;;;;;0.60;0.60;;;17.70;64.50;;;;;;5032437;28;20233;-64
2024/04/06 08:59:19;;;;;;;1.73;1.27;;;17.70;64.50;;;;;;5031024;28;20171;-63
2024/04/06 09:01:44;;;;;;;0.70;0.70;;;17.80;64.60;;;;;;5031729;28;20357;-63
2024/04/06 09:04:10;;;;;;;0.77;0.77;;;17.70;64.40;;;;;;5031837;28;20278;-64
2024/04/06 09:06:39;;;;;;;0.70;0.70;;;17.80;64.40;;;;;;5032218;28;20179;-64
2024/04/06 09:09:06;;;;;;;0.70;0.70;;;17.80;64.40;;;;;;5030140;28;20180;-64
2024/04/06 09:11:32;;;;;;;0.63;0.63;;;17.90;64.40;;;;;;5032046;28;20194;-64
2024/04/06 09:14:02;;;;;;;1.15;0.70;;;17.90;64.40;;;;;;5032178;28;20175;-64
2024/04/06 09:16:28;;;;;;;0.70;0.70;;;17.90;64.40;;;;;;5031389;28;20188;-65
2024/04/06 09:18:53;;;;;;;0.73;0.60;;;17.90;64.40;;;;;;5031854;28;20321;-64
2024/04/06 09:21:19;;;;;;;0.80;0.77;;;17.90;64.30;;;;;;5030851;28;20183;-64
2024/04/06 09:23:48;;;;;;;0.68;0.68;;;17.90;64.30;;;;;;5032040;28;20180;-64
2024/04/06 09:26:18;;;;;;;0.70;0.70;;;18.00;64.40;;;;;;5030629;28;20183;-64
2024/04/06 09:28:43;;;;;;;0.73;0.73;;;18.00;64.40;;;;;;5030197;28;20187;-64
2024/04/06 09:31:11;;;;;;;0.80;0.80;;;18.00;64.30;;;;;;5030431;28;20170;-64
2024/04/06 09:33:36;;;;;;;0.50;0.50;;;18.10;64.40;;;;;;5030664;28;20258;-64
2024/04/06 09:36:03;;;;;;;0.80;0.80;;;18.00;64.20;;;;;;5029760;28;20738;-65
2024/04/06 09:38:28;;;;;;;0.65;0.65;;;18.10;64.20;;;;;;5030357;28;20186;-64
2024/04/06 09:40:54;;;;;;;0.80;0.80;;;18.10;64.20;;;;;;5030416;28;20172;-64
2024/04/06 09:43:20;;;;;;;1.10;0.85;;;18.10;64.20;;;;;;5029609;28;20215;-64
2024/04/06 09:45:45;;;;;;;0.70;0.70;;;18.20;64.20;;;;;;5031987;28;20203;-64
2024/04/06 09:48:11;;;;;;;1.00;0.90;;;18.10;64.10;;;;;;5030201;28;20195;-65
2024/04/06 09:50:38;;;;;;;1.23;1.13;;;18.10;64.20;;;;;;5031068;28;20241;-65
2024/04/06 09:53:04;;;;;;;1.10;1.02;;;18.10;64.30;;;;;;5031568;28;20194;-64
2024/04/06 09:55:30;;;;;;;1.15;0.95;;;18.10;64.30;;;;;;5030434;28;20180;-65
2024/04/06 09:57:55;;;;;;;0.82;0.65;;;18.10;64.30;;;;;;5029967;28;20178;-64
2024/04/06 10:00:21;;;;;;;1.50;1.00;;;18.10;64.40;;;;;;5031709;28;20179;-64
2024/04/06 10:02:49;;;;;;;1.05;1.00;;;18.10;64.40;;;;;;5035783;28;20218;-64
2024/04/06 10:05:15;;;;;;;0.65;0.65;;;18.10;64.40;;;;;;5034638;28;20180;-64
2024/04/06 10:07:47;;;;;;;0.85;0.85;;;18.10;64.40;;;;;;5035890;28;20207;-64
2024/04/06 10:10:12;;;;;;;0.80;0.77;;;18.10;64.40;;;;;;5035066;28;20176;-65
2024/04/06 10:12:41;;;;;;;1.52;0.80;;;18.10;64.40;;;;;;5034831;28;20180;-64
2024/04/06 10:15:10;;;;;;;1.55;0.80;;;18.10;64.50;;;;;;5035331;28;20176;-64
2024/04/06 10:17:46;;;;;;;0.93;0.77;;;18.10;64.50;;;;;;5034802;28;20241;-64
2024/04/06 10:20:13;;;;;;;0.98;0.82;;;18.10;64.50;;;;;;5035471;28;20187;-64
2024/04/06 10:22:51;;;;;;;1.25;0.80;;;18.10;64.50;;;;;;5035601;28;20219;-65
2024/04/06 10:25:20;;;;;;;0.85;0.85;;;18.10;64.60;;;;;;5034408;28;20180;-63
2024/04/06 10:27:46;;;;;;;0.70;0.70;;;18.10;64.60;;;;;;5035396;28;20199;-64
2024/04/06 10:30:12;;;;;;;0.93;0.90;;;18.10;64.60;;;;;;5034643;28;20273;-64
2024/04/06 10:32:37;;;;;;;1.13;1.00;;;18.10;64.60;;;;;;5033368;28;20171;-64
2024/04/06 10:35:04;;;;;;;0.95;0.85;;;18.10;64.60;;;;;;5035056;28;20176;-64
2024/04/06 10:37:30;;;;;;;1.13;0.80;;;18.10;64.60;;;;;;5034840;28;20224;-64
2024/04/06 10:39:56;;;;;;;0.90;0.90;;;18.10;64.50;;;;;;5034288;28;20183;-64
2024/04/06 10:42:25;;;;;;;1.02;0.90;;;18.10;64.40;;;;;;5034255;28;20602;-64
2024/04/06 10:44:51;;;;;;;0.70;0.70;;;18.20;64.40;;;;;;5034723;28;20262;-64
2024/04/06 10:47:16;;;;;;;0.80;0.80;;;18.20;64.30;;;;;;5033974;28;20600;-64
2024/04/06 10:49:46;;;;;;;0.85;0.85;;;18.20;64.30;;;;;;5035009;28;20175;-64
2024/04/06 10:52:12;;;;;;;1.30;0.80;;;18.20;64.30;;;;;;5034509;28;20184;-64
2024/04/06 10:54:37;;;;;;;1.35;0.85;;;18.20;64.40;;;;;;5032966;28;20199;-64
2024/04/06 10:57:03;;;;;;;0.90;0.85;;;18.20;64.50;;;;;;5034586;28;20176;-63
2024/04/06 10:59:29;;;;;;;0.82;0.80;;;18.20;64.50;;;;;;5034100;28;20222;-64
2024/04/06 11:01:54;;;;;;;0.80;0.80;;;18.20;64.40;;;;;;5033675;28;20800;-64
2024/04/06 11:04:20;;;;;;;0.70;0.70;;;18.20;64.40;;;;;;5034162;28;20178;-64
2024/04/06 11:06:45;;;;;;;1.33;0.80;;;18.20;64.30;;;;;;5033793;28;20183;-65
2024/04/06 11:09:12;;;;;;;0.70;0.70;;;18.20;64.30;;;;;;5032918;28;20262;-65
2024/04/06 11:11:38;;;;;;;0.80;0.80;;;18.30;64.30;;;;;;5034098;28;20255;-65
2024/04/06 11:14:06;;;;;;;1.20;0.98;;;18.20;64.30;;;;;;5033475;28;20255;-64
2024/04/06 11:16:32;;;;;;;0.93;0.85;;;18.20;64.30;;;;;;5033356;28;20259;-65
2024/04/06 11:18:57;;;;;;;0.82;0.82;;;18.20;64.20;;;;;;5034193;28;20274;-65
2024/04/06 11:21:23;;;;;;;1.08;0.77;;;18.30;64.30;;;;;;5033200;28;20199;-65
2024/04/06 11:23:48;;;;;;;1.27;0.80;;;18.30;64.30;;;;;;5034313;28;20176;-65
2024/04/06 11:26:20;;;;;;;2.00;1.17;;;18.20;64.30;;;;;;5032507;28;20172;-64
2024/04/06 11:28:46;;;;;;;0.80;0.80;;;18.30;64.30;;;;;;5033615;28;20233;-65
2024/04/06 11:31:12;;;;;;;1.45;1.00;;;18.30;64.20;;;;;;5033754;28;20172;-64
2024/04/06 11:33:38;;;;;;;1.35;0.90;;;18.40;64.30;;;;;;5034099;28;20218;-64
2024/04/06 11:36:04;;;;;;;1.27;0.80;;;18.30;64.30;;;;;;5033284;28;20175;-65
2024/04/06 11:38:29;;;;;;;0.93;0.80;;;18.30;64.30;;;;;;5032258;28;20180;-65
2024/04/06 11:40:57;;;;;;;1.10;0.98;;;18.30;64.30;;;;;;5033425;28;20228;-64
2024/04/06 11:43:23;;;;;;;1.15;0.98;;;18.30;64.30;;;;;;5032936;28;20216;-64
2024/04/06 11:45:49;;;;;;;1.65;0.98;;;18.30;64.30;;;;;;5033999;28;20168;-65
2024/04/06 11:48:14;;;;;;;1.20;1.10;;;18.30;64.30;;;;;;5033461;28;20661;-65
2024/04/06 11:50:41;;;;;;;0.98;0.90;;;18.40;64.30;;;;;;5031716;28;20172;-65
2024/04/06 11:53:09;;;;;;;0.68;0.68;;;18.40;64.30;;;;;;5033582;28;20180;-65
2024/04/06 11:55:35;;;;;;;1.20;0.90;;;18.40;64.30;;;;;;5033547;28;20179;-65
2024/04/06 11:58:02;;;;;;;1.05;0.98;;;18.40;64.30;;;;;;5031829;28;20207;-64
2024/04/06 12:00:28;;;;;;;1.20;1.00;;;18.40;64.20;;;;;;5033423;28;20287;-65
2024/04/06 12:02:54;;;;;;;1.20;1.10;;;18.40;64.20;;;;;;5032630;28;20211;-65
2024/04/06 12:05:20;;;;;;;1.02;0.98;;;18.40;64.20;;;;;;5033236;28;20175;-65
2024/04/06 12:07:46;;;;;;;2.35;1.00;;;18.50;64.20;;;;;;5032242;28;20227;-65
2024/04/06 12:10:11;;;;;;;0.85;0.75;;;18.50;64.20;;;;;;5030844;28;20630;-64
2024/04/06 12:12:37;;;;;;;0.80;0.80;;;18.50;64.10;;;;;;5033261;28;20184;-65
2024/04/06 12:15:03;;;;;;;0.82;0.73;;;18.50;64.10;;;;;;5033385;28;20184;-64
2024/04/06 12:17:28;;;;;;;1.00;0.90;;;18.50;64.10;;;;;;5032346;28;20242;-64
2024/04/06 12:19:54;;;;;;;0.70;0.70;;;18.50;64.10;;;;;;5033098;28;20180;-64
2024/04/06 12:22:20;;;;;;;1.35;0.75;;;18.50;64.10;;;;;;5032587;28;20258;-65
2024/04/06 12:24:45;;;;;;;0.95;0.90;;;18.60;64.10;;;;;;5031612;28;20646;-65
2024/04/06 12:27:13;;;;;;;0.88;0.88;;;18.60;64.00;;;;;;5032519;28;20634;-64
2024/04/06 12:29:39;;;;;;;1.17;1.10;;;18.60;63.80;;;;;;5032804;28;20788;-65
2024/04/06 12:32:04;;;;;;;0.93;0.80;;;18.70;63.80;;;;;;5032085;28;20190;-65
2024/04/06 12:34:30;;;;;;;1.55;1.10;;;18.70;63.70;;;;;;5032523;28;20182;-65
2024/04/06 12:37:00;;;;;;;0.90;0.90;;;18.70;63.60;;;;;;5032682;28;20176;-64
2024/04/06 12:39:26;;;;;;;0.80;0.80;;;18.80;63.60;;;;;;5031685;28;20894;-64
2024/04/06 12:41:51;;;;;;;0.70;0.70;;;18.80;63.60;;;;;;5032456;28;20242;-65